sensor_id;sensor_type;location;lat;lon;timestamp;P1;durP1;ratioP1;P2;durP2;ratioP2
11685;SDS011;5899;51.282;6.094;2022-09-09T14:13:04;4.82;;;2.08;;
11685;SDS011;5899;51.282;6.094;2022-09-09T14:15:32;4.70;;;1.90;;
11685;SDS011;5899;51.282;6.094;2022-09-09T14:17:59;2.65;;;2.00;;
11685;SDS011;5899;51.282;6.094;2022-09-09T14:20:28;3.58;;;1.90;;
11685;SDS011;5899;51.282;6.094;2022-09-09T14:22:54;3.03;;;2.03;;
11685;SDS011;5899;51.282;6.094;2022-09-09T14:25:25;3.47;;;2.17;;
11685;SDS011;5899;51.282;6.094;2022-09-09T14:28:18;5.63;;;2.33;;
11685;SDS011;5899;51.282;6.094;2022-09-09T14:30:45;5.03;;;2.47;;
11685;SDS011;5899;51.282;6.094;2022-09-09T14:33:14;4.40;;;3.17;;
11685;SDS011;5899;51.282;6.094;2022-09-09T14:35:41;6.80;;;3.75;;
11685;SDS011;5899;51.282;6.094;2022-09-09T14:38:12;3.33;;;3.03;;
11685;SDS011;5899;51.282;6.094;2022-09-09T14:40:40;5.30;;;2.90;;
11685;SDS011;5899;51.282;6.094;2022-09-09T14:43:15;4.47;;;2.80;;
11685;SDS011;5899;51.282;6.094;2022-09-09T14:45:42;4.53;;;2.83;;
11685;SDS011;5899;51.282;6.094;2022-09-09T14:48:10;5.32;;;2.90;;
11685;SDS011;5899;51.282;6.094;2022-09-09T14:50:38;4.63;;;2.60;;
11685;SDS011;5899;51.282;6.094;2022-09-09T14:53:05;3.78;;;2.22;;
11685;SDS011;5899;51.282;6.094;2022-09-09T14:55:32;3.33;;;2.15;;
11685;SDS011;5899;51.282;6.094;2022-09-09T14:58:00;4.22;;;2.30;;
11685;SDS011;5899;51.282;6.094;2022-09-09T15:00:36;5.05;;;2.42;;
11685;SDS011;5899;51.282;6.094;2022-09-09T15:03:03;4.05;;;2.58;;
11685;SDS011;5899;51.282;6.094;2022-09-09T15:05:30;5.20;;;2.83;;
11685;SDS011;5899;51.282;6.094;2022-09-09T15:08:03;3.78;;;2.50;;
11685;SDS011;5899;51.282;6.094;2022-09-09T15:10:29;4.25;;;2.47;;
11685;SDS011;5899;51.282;6.094;2022-09-09T15:12:56;4.50;;;2.50;;
11685;SDS011;5899;51.282;6.094;2022-09-09T15:15:25;3.88;;;2.50;;
11685;SDS011;5899;51.282;6.094;2022-09-09T15:17:53;4.28;;;2.85;;
11685;SDS011;5899;51.282;6.094;2022-09-09T15:20:22;5.32;;;2.85;;
11685;SDS011;5899;51.282;6.094;2022-09-09T15:22:54;4.43;;;2.80;;
11685;SDS011;5899;51.282;6.094;2022-09-09T15:25:21;3.47;;;2.40;;
11685;SDS011;5899;51.282;6.094;2022-09-09T15:27:58;4.70;;;2.65;;
11685;SDS011;5899;51.282;6.094;2022-09-09T15:30:25;6.50;;;3.00;;
11685;SDS011;5899;51.282;6.094;2022-09-09T15:33:00;5.53;;;3.05;;
11685;SDS011;5899;51.282;6.094;2022-09-09T15:35:27;5.90;;;2.75;;
11685;SDS011;5899;51.282;6.094;2022-09-09T15:37:53;3.28;;;2.30;;
11685;SDS011;5899;51.282;6.094;2022-09-09T15:40:19;7.13;;;2.78;;
11685;SDS011;5899;51.282;6.094;2022-09-09T15:42:46;6.45;;;2.75;;
11685;SDS011;5899;51.282;6.094;2022-09-09T15:45:14;5.65;;;2.50;;
11685;SDS011;5899;51.282;6.094;2022-09-09T15:47:40;4.40;;;1.92;;
11685;SDS011;5899;51.282;6.094;2022-09-09T15:50:08;3.35;;;1.75;;
11685;SDS011;5899;51.282;6.094;2022-09-09T15:52:35;4.55;;;2.38;;
11685;SDS011;5899;51.282;6.094;2022-09-09T15:58:08;3.13;;;1.90;;
11685;SDS011;5899;51.282;6.094;2022-09-09T16:00:37;4.40;;;1.90;;
11685;SDS011;5899;51.282;6.094;2022-09-09T16:03:04;3.08;;;1.80;;
11685;SDS011;5899;51.282;6.094;2022-09-09T16:05:32;4.75;;;1.83;;
11685;SDS011;5899;51.282;6.094;2022-09-09T16:07:59;5.15;;;2.15;;
11685;SDS011;5899;51.282;6.094;2022-09-09T16:10:26;4.85;;;2.20;;
11685;SDS011;5899;51.282;6.094;2022-09-09T16:12:52;4.85;;;2.42;;
11685;SDS011;5899;51.282;6.094;2022-09-09T16:15:18;5.53;;;2.40;;
11685;SDS011;5899;51.282;6.094;2022-09-09T16:17:47;4.88;;;2.00;;
11685;SDS011;5899;51.282;6.094;2022-09-09T16:20:14;4.25;;;2.50;;
11685;SDS011;5899;51.282;6.094;2022-09-09T16:22:42;3.38;;;2.00;;
11685;SDS011;5899;51.282;6.094;2022-09-09T16:25:08;6.43;;;2.22;;
11685;SDS011;5899;51.282;6.094;2022-09-09T16:27:35;5.18;;;2.05;;
11685;SDS011;5899;51.282;6.094;2022-09-09T16:30:13;3.70;;;2.00;;
11685;SDS011;5899;51.282;6.094;2022-09-09T16:32:42;3.00;;;1.90;;
11685;SDS011;5899;51.282;6.094;2022-09-09T16:35:08;5.28;;;2.05;;
11685;SDS011;5899;51.282;6.094;2022-09-09T16:37:35;3.85;;;2.00;;
11685;SDS011;5899;51.282;6.094;2022-09-09T16:40:11;4.15;;;2.42;;
11685;SDS011;5899;51.282;6.094;2022-09-09T16:42:38;3.95;;;1.92;;
11685;SDS011;5899;51.282;6.094;2022-09-09T16:45:07;4.68;;;3.00;;
11685;SDS011;5899;51.282;6.094;2022-09-09T16:47:39;5.68;;;2.75;;
11685;SDS011;5899;51.282;6.094;2022-09-09T16:50:06;4.22;;;2.65;;
11685;SDS011;5899;51.282;6.094;2022-09-09T16:52:34;5.03;;;2.30;;
11685;SDS011;5899;51.282;6.094;2022-09-09T16:55:01;3.25;;;2.25;;
11685;SDS011;5899;51.282;6.094;2022-09-09T16:57:33;3.88;;;1.83;;
11685;SDS011;5899;51.282;6.094;2022-09-09T17:00:02;4.80;;;2.15;;
11685;SDS011;5899;51.282;6.094;2022-09-09T17:02:33;3.38;;;2.00;;
11685;SDS011;5899;51.282;6.094;2022-09-09T17:05:06;3.33;;;1.83;;
11685;SDS011;5899;51.282;6.094;2022-09-09T17:07:46;3.83;;;2.15;;
11685;SDS011;5899;51.282;6.094;2022-09-09T17:10:13;4.43;;;2.08;;
11685;SDS011;5899;51.282;6.094;2022-09-09T17:12:42;3.25;;;1.70;;
11685;SDS011;5899;51.282;6.094;2022-09-09T17:15:20;3.67;;;1.85;;
11685;SDS011;5899;51.282;6.094;2022-09-09T17:20:48;3.47;;;2.00;;
11685;SDS011;5899;51.282;6.094;2022-09-09T17:23:25;3.08;;;1.90;;
11685;SDS011;5899;51.282;6.094;2022-09-09T17:26:03;3.45;;;2.13;;
11685;SDS011;5899;51.282;6.094;2022-09-09T17:28:32;3.05;;;2.03;;
11685;SDS011;5899;51.282;6.094;2022-09-09T17:30:59;3.95;;;1.95;;
11685;SDS011;5899;51.282;6.094;2022-09-09T17:33:27;2.60;;;2.20;;
11685;SDS011;5899;51.282;6.094;2022-09-09T17:35:59;2.88;;;1.67;;
11685;SDS011;5899;51.282;6.094;2022-09-09T17:38:26;4.35;;;2.28;;
11685;SDS011;5899;51.282;6.094;2022-09-09T17:41:00;3.28;;;2.00;;
11685;SDS011;5899;51.282;6.094;2022-09-09T17:43:33;4.65;;;2.35;;
11685;SDS011;5899;51.282;6.094;2022-09-09T17:46:05;4.07;;;2.20;;
11685;SDS011;5899;51.282;6.094;2022-09-09T17:48:31;3.97;;;2.40;;
11685;SDS011;5899;51.282;6.094;2022-09-09T17:50:58;6.18;;;2.33;;
11685;SDS011;5899;51.282;6.094;2022-09-09T17:53:27;4.57;;;2.58;;
11685;SDS011;5899;51.282;6.094;2022-09-09T17:55:53;3.60;;;2.03;;
11685;SDS011;5899;51.282;6.094;2022-09-09T17:58:20;3.10;;;1.80;;
11685;SDS011;5899;51.282;6.094;2022-09-09T18:00:49;3.80;;;2.00;;
11685;SDS011;5899;51.282;6.094;2022-09-09T18:03:16;4.30;;;1.98;;
11685;SDS011;5899;51.282;6.094;2022-09-09T18:05:45;5.78;;;2.53;;
11685;SDS011;5899;51.282;6.094;2022-09-09T18:08:12;3.15;;;1.98;;
11685;SDS011;5899;51.282;6.094;2022-09-09T18:13:52;4.03;;;2.90;;
11685;SDS011;5899;51.282;6.094;2022-09-09T18:16:20;4.32;;;2.85;;
11685;SDS011;5899;51.282;6.094;2022-09-09T18:18:50;4.90;;;2.92;;
11685;SDS011;5899;51.282;6.094;2022-09-09T18:21:17;2.97;;;2.25;;
11685;SDS011;5899;51.282;6.094;2022-09-09T18:23:52;2.63;;;2.30;;
11685;SDS011;5899;51.282;6.094;2022-09-09T18:26:19;2.10;;;1.90;;
11685;SDS011;5899;51.282;6.094;2022-09-09T18:28:49;3.08;;;1.80;;
11685;SDS011;5899;51.282;6.094;2022-09-09T18:31:28;2.75;;;1.67;;
11685;SDS011;5899;51.282;6.094;2022-09-09T18:33:56;2.10;;;1.80;;
11685;SDS011;5899;51.282;6.094;2022-09-09T18:36:27;2.03;;;1.60;;
11685;SDS011;5899;51.282;6.094;2022-09-09T18:38:56;3.00;;;1.95;;
11685;SDS011;5899;51.282;6.094;2022-09-09T18:41:23;1.70;;;1.60;;
11685;SDS011;5899;51.282;6.094;2022-09-09T18:43:51;4.18;;;1.70;;
11685;SDS011;5899;51.282;6.094;2022-09-09T18:46:18;2.85;;;2.03;;
11685;SDS011;5899;51.282;6.094;2022-09-09T18:48:49;2.78;;;1.88;;
11685;SDS011;5899;51.282;6.094;2022-09-09T18:51:16;3.50;;;2.50;;
11685;SDS011;5899;51.282;6.094;2022-09-09T18:53:43;4.50;;;2.00;;
11685;SDS011;5899;51.282;6.094;2022-09-09T18:56:14;3.15;;;2.60;;
11685;SDS011;5899;51.282;6.094;2022-09-09T18:58:52;4.43;;;2.38;;
11685;SDS011;5899;51.282;6.094;2022-09-09T19:01:25;3.30;;;2.08;;
11685;SDS011;5899;51.282;6.094;2022-09-09T19:03:54;3.35;;;1.90;;
11685;SDS011;5899;51.282;6.094;2022-09-09T19:06:25;3.38;;;2.20;;
11685;SDS011;5899;51.282;6.094;2022-09-09T19:08:52;5.35;;;2.53;;
11685;SDS011;5899;51.282;6.094;2022-09-09T19:11:19;4.18;;;2.50;;
11685;SDS011;5899;51.282;6.094;2022-09-09T19:13:50;2.95;;;2.45;;
11685;SDS011;5899;51.282;6.094;2022-09-09T19:16:17;2.60;;;2.40;;
11685;SDS011;5899;51.282;6.094;2022-09-09T19:18:44;3.08;;;2.15;;
11685;SDS011;5899;51.282;6.094;2022-09-09T19:21:15;3.75;;;2.30;;
11685;SDS011;5899;51.282;6.094;2022-09-09T19:23:43;2.95;;;2.67;;
11685;SDS011;5899;51.282;6.094;2022-09-09T19:26:10;3.45;;;2.65;;
11685;SDS011;5899;51.282;6.094;2022-09-09T19:28:40;2.55;;;2.13;;
11685;SDS011;5899;51.282;6.094;2022-09-09T19:31:08;4.95;;;2.45;;
11685;SDS011;5899;51.282;6.094;2022-09-09T19:33:35;2.88;;;2.58;;
11685;SDS011;5899;51.282;6.094;2022-09-09T19:36:03;2.65;;;2.03;;
11685;SDS011;5899;51.282;6.094;2022-09-09T19:38:32;2.97;;;2.33;;
11685;SDS011;5899;51.282;6.094;2022-09-09T19:41:01;3.70;;;2.92;;
11685;SDS011;5899;51.282;6.094;2022-09-09T19:43:28;5.10;;;3.33;;
11685;SDS011;5899;51.282;6.094;2022-09-09T19:45:55;3.45;;;2.95;;
11685;SDS011;5899;51.282;6.094;2022-09-09T19:48:22;3.50;;;3.00;;
11685;SDS011;5899;51.282;6.094;2022-09-09T19:50:51;5.82;;;3.63;;
11685;SDS011;5899;51.282;6.094;2022-09-09T19:53:17;4.53;;;4.13;;
11685;SDS011;5899;51.282;6.094;2022-09-09T19:55:45;4.53;;;4.13;;
11685;SDS011;5899;51.282;6.094;2022-09-09T19:58:14;6.60;;;5.30;;
11685;SDS011;5899;51.282;6.094;2022-09-09T20:00:41;5.22;;;4.72;;
11685;SDS011;5899;51.282;6.094;2022-09-09T20:03:07;5.78;;;5.28;;
11685;SDS011;5899;51.282;6.094;2022-09-09T20:05:34;5.45;;;4.95;;
11685;SDS011;5899;51.282;6.094;2022-09-09T20:08:00;5.07;;;4.45;;
11685;SDS011;5899;51.282;6.094;2022-09-09T20:10:27;6.47;;;5.80;;
11685;SDS011;5899;51.282;6.094;2022-09-09T20:12:55;5.32;;;4.60;;
11685;SDS011;5899;51.282;6.094;2022-09-09T20:15:22;6.40;;;4.70;;
11685;SDS011;5899;51.282;6.094;2022-09-09T20:17:50;4.65;;;4.05;;
11685;SDS011;5899;51.282;6.094;2022-09-09T20:20:18;6.50;;;5.35;;
11685;SDS011;5899;51.282;6.094;2022-09-09T20:22:45;7.10;;;5.00;;
11685;SDS011;5899;51.282;6.094;2022-09-09T20:25:11;5.82;;;5.13;;
11685;SDS011;5899;51.282;6.094;2022-09-09T20:27:39;5.80;;;4.70;;
11685;SDS011;5899;51.282;6.094;2022-09-09T20:30:08;7.45;;;5.43;;
11685;SDS011;5899;51.282;6.094;2022-09-09T20:32:35;7.97;;;5.25;;
11685;SDS011;5899;51.282;6.094;2022-09-09T20:35:01;7.30;;;5.40;;
11685;SDS011;5899;51.282;6.094;2022-09-09T20:37:28;6.10;;;5.45;;
11685;SDS011;5899;51.282;6.094;2022-09-09T20:39:55;5.40;;;4.90;;
11685;SDS011;5899;51.282;6.094;2022-09-09T20:42:24;5.68;;;4.65;;
11685;SDS011;5899;51.282;6.094;2022-09-09T20:44:51;6.93;;;4.95;;
11685;SDS011;5899;51.282;6.094;2022-09-09T20:47:18;6.93;;;4.50;;
11685;SDS011;5899;51.282;6.094;2022-09-09T20:49:45;5.53;;;4.25;;
11685;SDS011;5899;51.282;6.094;2022-09-09T20:52:12;5.93;;;4.47;;
11685;SDS011;5899;51.282;6.094;2022-09-09T20:54:39;5.20;;;3.80;;
11685;SDS011;5899;51.282;6.094;2022-09-09T20:57:09;5.60;;;4.15;;
11685;SDS011;5899;51.282;6.094;2022-09-09T20:59:36;7.15;;;4.35;;
11685;SDS011;5899;51.282;6.094;2022-09-09T21:02:02;5.80;;;4.47;;
11685;SDS011;5899;51.282;6.094;2022-09-09T21:04:31;6.43;;;4.47;;
11685;SDS011;5899;51.282;6.094;2022-09-09T21:06:57;5.43;;;3.75;;
11685;SDS011;5899;51.282;6.094;2022-09-09T21:09:24;6.57;;;4.15;;
11685;SDS011;5899;51.282;6.094;2022-09-09T21:11:51;5.18;;;3.60;;
11685;SDS011;5899;51.282;6.094;2022-09-09T21:14:26;8.68;;;4.15;;
11685;SDS011;5899;51.282;6.094;2022-09-09T21:16:53;6.20;;;3.83;;
11685;SDS011;5899;51.282;6.094;2022-09-09T21:19:20;7.55;;;4.30;;
11685;SDS011;5899;51.282;6.094;2022-09-09T21:21:48;6.32;;;4.03;;
11685;SDS011;5899;51.282;6.094;2022-09-09T21:24:17;5.30;;;4.40;;
11685;SDS011;5899;51.282;6.094;2022-09-09T21:26:44;6.22;;;4.07;;
11685;SDS011;5899;51.282;6.094;2022-09-09T21:29:10;5.03;;;4.03;;
11685;SDS011;5899;51.282;6.094;2022-09-09T21:31:37;5.93;;;4.53;;
11685;SDS011;5899;51.282;6.094;2022-09-09T21:34:03;7.55;;;4.90;;
11685;SDS011;5899;51.282;6.094;2022-09-09T21:36:30;8.15;;;4.90;;
11685;SDS011;5899;51.282;6.094;2022-09-09T21:38:59;6.15;;;5.25;;
11685;SDS011;5899;51.282;6.094;2022-09-09T21:41:25;7.53;;;5.25;;
11685;SDS011;5899;51.282;6.094;2022-09-09T21:43:52;7.72;;;5.03;;
11685;SDS011;5899;51.282;6.094;2022-09-09T21:46:19;7.70;;;5.20;;
11685;SDS011;5899;51.282;6.094;2022-09-09T21:48:47;5.70;;;5.10;;
11685;SDS011;5899;51.282;6.094;2022-09-09T21:51:14;8.23;;;5.50;;
11685;SDS011;5899;51.282;6.094;2022-09-09T21:53:41;9.25;;;5.82;;
11685;SDS011;5899;51.282;6.094;2022-09-09T21:56:10;6.35;;;5.75;;
11685;SDS011;5899;51.282;6.094;2022-09-09T21:58:37;5.53;;;4.82;;
11685;SDS011;5899;51.282;6.094;2022-09-09T22:01:07;6.70;;;5.78;;
11685;SDS011;5899;51.282;6.094;2022-09-09T22:03:35;6.43;;;5.78;;
11685;SDS011;5899;51.282;6.094;2022-09-09T22:06:03;6.38;;;4.85;;
11685;SDS011;5899;51.282;6.094;2022-09-09T22:08:30;6.47;;;5.25;;
11685;SDS011;5899;51.282;6.094;2022-09-09T22:10:58;8.27;;;5.43;;
11685;SDS011;5899;51.282;6.094;2022-09-09T22:13:31;7.15;;;5.40;;
11685;SDS011;5899;51.282;6.094;2022-09-09T22:16:00;5.15;;;4.63;;
11685;SDS011;5899;51.282;6.094;2022-09-09T22:18:27;4.55;;;3.50;;
11685;SDS011;5899;51.282;6.094;2022-09-09T22:21:03;6.43;;;4.55;;
11685;SDS011;5899;51.282;6.094;2022-09-09T22:23:29;6.60;;;3.55;;
11685;SDS011;5899;51.282;6.094;2022-09-09T22:25:56;4.80;;;3.17;;
11685;SDS011;5899;51.282;6.094;2022-09-09T22:28:25;7.85;;;2.60;;
11685;SDS011;5899;51.282;6.094;2022-09-09T22:30:53;2.65;;;2.30;;
11685;SDS011;5899;51.282;6.094;2022-09-09T22:33:27;6.15;;;2.53;;
11685;SDS011;5899;51.282;6.094;2022-09-09T22:35:53;3.55;;;2.00;;
11685;SDS011;5899;51.282;6.094;2022-09-09T22:38:20;2.80;;;1.67;;
11685;SDS011;5899;51.282;6.094;2022-09-09T22:40:47;2.90;;;1.90;;
11685;SDS011;5899;51.282;6.094;2022-09-09T22:43:14;3.78;;;1.98;;
11685;SDS011;5899;51.282;6.094;2022-09-09T22:45:41;4.38;;;1.90;;
11685;SDS011;5899;51.282;6.094;2022-09-09T22:48:09;3.80;;;1.83;;
11685;SDS011;5899;51.282;6.094;2022-09-09T22:50:36;3.05;;;1.80;;
11685;SDS011;5899;51.282;6.094;2022-09-09T22:53:03;2.97;;;1.58;;
11685;SDS011;5899;51.282;6.094;2022-09-09T22:55:32;4.60;;;2.13;;
11685;SDS011;5899;51.282;6.094;2022-09-09T22:57:58;4.47;;;1.80;;
11685;SDS011;5899;51.282;6.094;2022-09-09T23:00:25;4.65;;;1.77;;
11685;SDS011;5899;51.282;6.094;2022-09-09T23:02:53;2.75;;;1.80;;
11685;SDS011;5899;51.282;6.094;2022-09-09T23:05:24;3.53;;;1.60;;
11685;SDS011;5899;51.282;6.094;2022-09-09T23:07:51;2.45;;;1.60;;
11685;SDS011;5899;51.282;6.094;2022-09-09T23:10:19;2.20;;;1.52;;
11685;SDS011;5899;51.282;6.094;2022-09-09T23:12:46;5.32;;;2.20;;
11685;SDS011;5899;51.282;6.094;2022-09-09T23:15:13;2.53;;;1.95;;
11685;SDS011;5899;51.282;6.094;2022-09-09T23:17:39;6.53;;;2.67;;
11685;SDS011;5899;51.282;6.094;2022-09-09T23:20:07;5.80;;;2.60;;
11685;SDS011;5899;51.282;6.094;2022-09-09T23:25:31;6.18;;;3.13;;
11685;SDS011;5899;51.282;6.094;2022-09-09T23:28:01;5.35;;;2.72;;
11685;SDS011;5899;51.282;6.094;2022-09-09T23:30:27;3.33;;;2.50;;
11685;SDS011;5899;51.282;6.094;2022-09-09T23:32:57;4.68;;;2.90;;
11685;SDS011;5899;51.282;6.094;2022-09-09T23:35:24;5.47;;;3.03;;
11685;SDS011;5899;51.282;6.094;2022-09-09T23:37:50;5.60;;;3.10;;
11685;SDS011;5899;51.282;6.094;2022-09-09T23:40:17;6.65;;;3.20;;
11685;SDS011;5899;51.282;6.094;2022-09-09T23:42:48;6.53;;;3.53;;
11685;SDS011;5899;51.282;6.094;2022-09-09T23:45:15;8.38;;;3.58;;
11685;SDS011;5899;51.282;6.094;2022-09-09T23:47:42;4.68;;;2.97;;
11685;SDS011;5899;51.282;6.094;2022-09-09T23:50:09;5.90;;;3.38;;
11685;SDS011;5899;51.282;6.094;2022-09-09T23:52:41;4.10;;;3.70;;
11685;SDS011;5899;51.282;6.094;2022-09-09T23:55:08;7.93;;;3.38;;
11685;SDS011;5899;51.282;6.094;2022-09-09T23:57:35;5.70;;;3.67;;
